x

Canaveral East - 120nm East Of Cape Canaveral (41010) Wave Buoy

7:50am - Mon 24th Nov 2014 All times are EST. -5 hours from GMT.

  • Sig Wave height 8.9ft
  • Swell Direction
  • Peak Period 9s
  • Average Period 7s
  • Wind
    20mph, 25mph gusts
  • Sea Temp 78°f
  • Air Temp 79°f
  • Sea Pressure 1015.8mb
  • Canaveral East - 120nm East Of Cape Canaveral
  • Canaveral East - 120nm East Of Cape Canaveral

More Historic Weather Station data

Upgrade to MSW Pro to gain access to the past 30 days of data for over 8000 Wavebouys and Weather Stations around the globe.

Join Pro

Comparision Forecast

View Surf forecast
   
Mon 11/24 7:50am 9ft 9s 7s 20 25 mph 1015.8mb 78f 79f
7:20am  -   -   -  20 25 mph 1015.5mb 78f 79f
6:50am 9ft 10s 7s 18 25 mph 1015.3mb 78f 79f
6:20am  -   -   -  18 22 mph 1015.1mb 78f 79f
5:50am 8ft 10s 6s 20 25 mph 1014.8mb 78f 78f
5:20am  -   -   -  20 25 mph 1014.5mb 78f 78f
4:50am 9ft 9s 7s 20 25 mph 1014.3mb 78f 78f
4:20am  -   -   -  20 25 mph 1014.3mb 78f 78f
3:50am 8.5ft 8s 7s 20 25 mph 1014.3mb 78f 78f
3:20am  -   -   -  20 27 mph 1014.2mb 78f 78f
2:50am 8ft 8s 6s 22 27 mph 1014.2mb 78f 78f
2:20am  -   -   -  22 25 mph 1014.2mb 78f 78f
1:50am 8.5ft 10s 6s 22 25 mph 1014.2mb 78f 78f
1:20am  -   -   -  22 27 mph 1014.7mb 78f 78f
12:50am 9ft 9s 6s 22 31 mph 1014.6mb 78f 78f
12:20am  -   -   -  22 27 mph 1014.6mb 78f 78f
Sun 11/23 11:50pm 8.5ft 9s 6s 22 27 mph 1014.7mb 78f 78f
11:20pm  -   -   -  22 27 mph 1015mb 78f 79f
10:50pm 10ft 10s 7s 25 29 mph 1015.2mb 78f 79f
10:20pm  -   -   -  22 27 mph 1015.2mb 78f 79f
9:50pm 9ft 10s 7s 22 27 mph 1015.3mb 78f 78f
9:20pm  -   -   -  22 27 mph 1015.2mb 78f 78f
8:50pm 9ft 10s 6s 22 25 mph 1014.9mb 78f 79f
8:20pm  -   -   -  20 22 mph 1015.1mb 78f 79f
7:50pm 10ft 9s 7s 22 27 mph 1014.8mb 78f 79f
7:20pm  -   -   -  22 27 mph 1014.6mb 78f 79f
6:50pm 9ft 9s 6s 22 29 mph 1014.6mb 78f 79f
6:20pm  -   -   -  20 25 mph 1014.6mb 78f 79f
5:50pm 9.5ft 10s 6s 22 27 mph 1014.3mb 78f 79f
5:20pm  -   -   -  22 27 mph 1014.2mb 78f 79f
4:50pm 9ft 10s 6s 22 27 mph 1014.1mb 78f 79f
4:20pm  -   -   -  22 29 mph 1014.1mb 78f 79f
3:50pm 9ft 10s 6s 22 29 mph 1014.1mb 78f 79f
3:20pm  -   -   -  25 29 mph 1014.2mb 78f 79f
2:50pm 10ft 9s 6s 25 29 mph 1014.4mb 78f 79f
2:20pm  -   -   -  22 29 mph 1014.5mb 78f 79f
1:50pm 10ft 9s 7s 25 29 mph 1014.8mb 78f 79f
1:20pm  -   -   -  22 29 mph 1015.3mb 78f 79f
12:50pm 11ft 10s 7s 22 29 mph 1015.9mb 78f 78f
12:20pm  -   -   -  25 31 mph 1016.3mb 78f 78f
11:50am 11ft 9s 7s 25 29 mph 1017mb 78f 77f
11:20am  -   -   -  25 31 mph 1017.1mb 78f 77f
10:50am 11ft 9s 6s 27 34 mph 1017.3mb 78f 77f
10:20am  -   -   -  29 38 mph 1017.1mb 78f 78f
9:50am 10ft 9s 6s 29 36 mph 1017.2mb 78f 78f
9:20am  -   -   -  29 36 mph 1017.4mb 78f 77f
8:50am 10ft 9s 6s 29 34 mph 1017.5mb 78f 77f
8:20am  -   -   -  31 38 mph 1017.3mb 78f 77f
7:50am 10ft 7s 6s 29 34 mph 1017.5mb 78f 76f
7:20am  -   -   -  29 38 mph 1017.2mb 78f 76f
6:50am 9.5ft 9s 6s 29 34 mph 1017.4mb 78f 76f
6:20am  -   -   -  29 34 mph 1017.9mb 78f 76f
5:50am 9ft 10s 6s 27 31 mph 1017.8mb 78f 76f
5:20am  -   -   -  27 34 mph 1018mb 78f 76f
4:50am 9ft 9s 6s 27 34 mph 1018.1mb 78f 76f
4:20am  -   -   -  27 34 mph 1018.4mb 78f 75f
3:50am 8.5ft 10s 6s 25 29 mph 1019mb 78f 75f
3:20am  -   -   -  27 31 mph 1019.2mb 78f 75f
2:50am 8.5ft 9s 6s 27 31 mph 1019.7mb 78f 75f
2:20am  -   -   -  25 31 mph 1020.2mb 78f 75f
1:50am 9ft 8s 6s 25 29 mph 1020.4mb 78f 75f
1:20am  -   -   -  25 29 mph 1020.7mb 78f 75f
12:50am 9ft 9s 6s 25 31 mph 1020.9mb 78f 75f
12:20am  -   -   -  27 31 mph 1020.9mb 78f 74f
Sat 11/22 11:50pm 9ft 10s 6s 27 29 mph 1021.5mb 78f 74f
11:20pm  -   -   -  29 34 mph 1021.6mb 78f 74f
10:50pm 9ft 9s 6s 27 31 mph 1022.2mb 78f 74f
10:20pm  -   -   -  27 34 mph 1022.3mb 78f 74f
9:50pm 9.5ft 7s 6s 25 31 mph 1022.6mb 78f 74f
9:20pm  -   -   -  25 31 mph 1022.6mb 78f 74f
8:50pm 9ft 9s 6s 27 31 mph 1022.2mb 78f 74f
8:20pm  -   -   -  27 31 mph 1022.4mb 78f 74f
7:50pm 9ft 9s 6s 27 31 mph 1022.5mb 78f 74f
7:20pm  -   -   -  27 31 mph 1022.7mb 78f 74f
6:50pm 9ft 8s 6s 27 31 mph 1022.6mb 78f 74f
6:20pm  -   -   -  27 34 mph 1022.5mb 78f 73f
5:50pm 9ft 9s 6s 27 34 mph 1022.4mb 78f 73f
5:20pm  -   -   -  27 34 mph 1022.6mb 78f 73f
4:50pm 9ft 8s 6s 27 34 mph 1022.8mb 78f 73f
4:20pm  -   -   -  27 31 mph 1023.5mb 78f 73f
3:50pm 8.5ft 9s 6s 25 31 mph 1023.8mb 78f 73f
3:20pm  -   -   -  25 31 mph 1023.9mb 78f 73f
2:50pm 9ft 9s 6s 25 31 mph 1024mb 78f 73f
2:20pm  -   -   -  27 34 mph 1024mb 78f 73f
1:50pm 9ft 7s 6s 27 31 mph 1024.4mb 78f 73f
1:20pm  -   -   -  27 34 mph 1024.7mb 78f 73f
12:50pm 9ft 7s 6s 27 31 mph 1025.2mb 78f 73f
12:20pm  -   -   -  27 31 mph 1025.9mb 78f 72f
11:50am 9ft 7s 6s 27 31 mph 1026mb 78f 72f
11:20am  -   -   -  27 34 mph 1026.4mb 78f 72f
10:50am 9ft 7s 6s 27 31 mph 1026.6mb 78f 73f
10:20am  -   -   -  29 34 mph 1026.5mb 78f 73f
9:50am 9.5ft 8s 6s 27 34 mph 1026.6mb 78f 72f
9:20am  -   -   -  27 34 mph 1026.6mb 78f 72f
8:50am 9ft 7s 6s 29 36 mph 1026.2mb 78f 72f
8:20am  -   -   -  27 34 mph 1026.2mb 78f 72f
7:50am 8ft 7s 6s 29 34 mph 1025.9mb 78f 72f
7:20am  -   -   -  27 34 mph 1025.7mb 78f 73f
6:50am 8.5ft 8s 6s 27 31 mph 1025.1mb 78f 73f
6:20am  -   -   -  27 31 mph 1025.2mb 78f 73f
5:50am 8ft 6s 6s 25 29 mph 1025.1mb 78f 73f
5:20am  -   -   -  27 34 mph 1024.8mb 78f 73f
4:50am 7ft 6s 5s 27 34 mph 1024.6mb 78f 73f
4:20am  -   -   -  22 29 mph 1024.6mb 78f 73f
3:50am 7ft 7s 5s 25 31 mph 1024.6mb 78f 73f
3:20am  -   -   -  25 29 mph 1024.6mb 78f 73f
2:50am 8ft 6s 5s 25 29 mph 1024.9mb 78f 73f
2:20am  -   -   -  25 29 mph 1025mb 78f 73f
1:50am 7ft 6s 5s 27 34 mph 1024.8mb 78f 73f
1:20am  -   -   -  25 29 mph 1025mb 78f 73f
12:50am 7ft 6s 5s 25 29 mph 1025.3mb 78f 73f
12:20am  -   -   -  22 29 mph 1025.5mb 78f 73f
Fri 11/21 11:50pm 7ft 6s 5s 25 31 mph 1025.3mb 78f 73f
11:20pm  -   -   -  25 31 mph 1025.2mb 78f 74f
10:50pm 6.5ft 5s 5s 25 31 mph 1025.3mb 78f 74f
10:20pm  -   -   -  27 31 mph 1025.1mb 78f 74f
9:50pm 6ft 6s 5s 27 31 mph 1024.9mb 78f 74f
9:20pm  -   -   -  22 27 mph 1025.6mb 78f 74f
8:50pm 5.5ft 5s 5s 22 29 mph 1025.4mb 78f 73f
8:20pm  -   -   -  22 27 mph 1025.4mb 78f 73f
7:50pm 5.5ft 5s 5s 22 27 mph 1025.3mb 78f 74f
7:20pm  -   -   -  22 25 mph 1025.3mb 78f 74f
6:50pm 5.5ft 8s 5s 22 27 mph 1025mb 78f 73f
6:20pm  -   -   -  22 27 mph 1024.6mb 78f 73f
5:50pm 5ft 8s 5s 22 27 mph 1024.5mb 78f 73f
5:20pm  -   -   -  22 29 mph 1024.4mb 78f 73f
4:50pm 4.5ft 5s 5s 22 27 mph 1024.2mb 78f 73f
4:20pm  -   -   -  20 25 mph 1024.2mb 78f 73f
3:50pm 4.5ft 8s 5s 22 27 mph 1024.1mb 78f 73f
3:20pm  -   -   -  20 25 mph 1024mb 78f 73f
2:50pm 4.5ft 8s 5s 20 22 mph 1024mb 78f 73f
2:20pm  -   -   -  18 22 mph 1024mb 78f 73f
1:50pm 4ft 8s 5s 18 22 mph 1024mb 78f 73f
1:20pm  -   -   -  18 20 mph 1024.4mb 78f 73f
12:50pm 4ft 8s 5s 18 22 mph 1024.6mb 78f 73f
12:20pm  -   -   -  16 20 mph 1024.9mb 78f 73f
11:50am 3.5ft 8s 5s 18 22 mph 1025.2mb 78f 72f
11:20am  -   -   -  18 22 mph 1025.3mb 78f 72f
10:50am 3.5ft 8s 5s 18 25 mph 1025.3mb 78f 72f
10:20am  -   -   -  18 22 mph 1025.7mb 78f 72f
9:50am 3.5ft 8s 5s 18 22 mph 1025.6mb 78f 72f
9:20am  -   -   -  18 22 mph 1025.3mb 78f 71f
8:50am 3.5ft 8s 5s 16 20 mph 1025mb 78f 71f
8:20am  -   -   -  16 18 mph 1024.9mb 78f 71f
7:50am 4ft 8s 5s 16 20 mph 1024.5mb 78f 70f
7:20am  -   -   -  13 18 mph 1024.2mb 78f 70f
6:50am 3.5ft 7s 5s 16 20 mph 1023.9mb 78f 70f
6:20am  -   -   -  16 18 mph 1023.7mb 78f 70f
5:50am 3.5ft 8s 5s 13 20 mph 1023.4mb 78f 70f
5:20am  -   -   -  16 20 mph 1023.2mb 78f 70f
4:50am 3.5ft 8s 5s 13 18 mph 1023.1mb 78f 70f
4:20am  -   -   -  13 18 mph 1022.7mb 78f 70f
3:50am 3.5ft 8s 5s 11 16 mph 1022.8mb 78f 70f
3:20am  -   -   -  11 13 mph 1022.9mb 78f 70f
2:50am 3ft 8s 5s 13 16 mph 1022.6mb 78f 70f
2:20am  -   -   -  13 16 mph 1022.8mb 78f 71f
1:50am 3.5ft 7s 5s 13 16 mph 1022.9mb 78f 70f
1:20am  -   -   -  13 18 mph 1022.9mb 78f 70f
12:50am 3.5ft 8s 5s 13 16 mph 1023.1mb 78f 70f
12:20am  -   -   -  11 16 mph 1023.5mb 78f 70f
Thu 11/20 11:50pm 3.5ft 8s 5s 13 18 mph 1023.6mb 78f 70f
11:20pm  -   -   -  13 18 mph 1023.7mb 78f 70f
10:50pm 3.5ft 7s 5s 13 18 mph 1023.6mb 78f 70f
10:20pm  -   -   -  13 18 mph 1023.6mb 78f 70f
9:50pm 3.5ft 7s 5s 13 18 mph 1023.7mb 78f 70f
9:20pm  -   -   -  13 18 mph 1023.4mb 78f 70f
8:50pm 3.5ft 7s 5s 13 18 mph 1023.3mb 78f 70f
8:20pm  -   -   -  13 18 mph 1023.3mb 78f 70f
7:50pm 3.5ft 8s 5s 11 16 mph 1023.2mb 78f 70f
7:20pm  -   -   -  11 16 mph 1023.1mb 78f 70f
6:50pm 3.5ft 8s 5s 9 13 mph 1022.9mb 78f 69f
6:20pm  -   -   -  9 13 mph 1022.6mb 78f 69f
5:50pm 3.5ft 8s 6s 9 13 mph 1022.4mb 78f 69f
5:20pm  -   -   -  11 13 mph 1022.2mb 78f 69f
4:50pm 3ft 8s 6s 11 16 mph 1022.2mb 78f 69f
4:20pm  -   -   -  11 13 mph 1022.4mb 78f 69f
3:50pm 3ft 8s 6s 11 16 mph 1022.3mb 78f 69f
3:20pm  -   -   -  9 13 mph 1022.2mb 78f 69f
2:50pm 3.5ft 7s 6s 11 13 mph 1022.1mb 78f 69f
2:20pm  -   -   -  9 16 mph 1022.2mb 78f 69f
1:50pm 3.5ft 8s 6s 11 16 mph 1022.3mb 78f 69f